Time;durP1;ratioP1;P1;durP2;ratioP2;P2;SDS_P1;SDS_P2;PMS_P1;PMS_P2;Temp;Humidity;BMP_temperature;BMP_pressure;BME280_temperature;BME280_humidity;BME280_pressure;Samples;Min_cycle;Max_cycle;Signal;HPM_P1;HPM_P2
2022/03/07 00:00:44;;;;;;;18.42;12.95;;;1.30;79.50;;;;;;5077519;28;20051;-78
2022/03/07 00:03:10;;;;;;;16.85;13.02;;;1.30;79.60;;;;;;5078922;28;20319;-78
2022/03/07 00:05:36;;;;;;;16.40;11.60;;;1.30;79.50;;;;;;5082642;28;20356;-78
2022/03/07 00:08:02;;;;;;;17.73;12.75;;;1.30;79.40;;;;;;5073699;28;20163;-78
2022/03/07 00:10:28;;;;;;;16.73;11.50;;;1.20;79.50;;;;;;5078113;28;20028;-78
2022/03/07 00:12:54;;;;;;;17.30;11.68;;;1.30;79.50;;;;;;5071130;28;20027;-78
2022/03/07 00:15:20;;;;;;;15.10;11.88;;;1.20;79.60;;;;;;5071179;28;20541;-79
2022/03/07 00:17:46;;;;;;;16.40;11.45;;;1.20;79.60;;;;;;5074343;28;20036;-78
2022/03/07 00:20:12;;;;;;;18.67;12.50;;;1.20;79.60;;;;;;5072174;28;20034;-77
2022/03/07 00:22:37;;;;;;;18.50;12.80;;;1.10;79.60;;;;;;5081806;28;20035;-77
2022/03/07 00:25:04;;;;;;;16.02;11.73;;;1.10;79.70;;;;;;5079859;28;20039;-78
2022/03/07 00:27:29;;;;;;;18.33;13.02;;;1.10;79.90;;;;;;5077829;28;20503;-78
2022/03/07 00:29:55;;;;;;;19.98;13.23;;;1.10;79.90;;;;;;5078093;28;20051;-78
2022/03/07 00:32:21;;;;;;;19.23;12.88;;;1.10;80.00;;;;;;5079461;28;20036;-78
2022/03/07 00:34:47;;;;;;;18.70;14.00;;;1.10;79.90;;;;;;5074847;28;20043;-78
2022/03/07 00:37:14;;;;;;;15.43;12.82;;;1.10;80.10;;;;;;5085659;28;20032;-77
2022/03/07 00:39:39;;;;;;;20.83;13.20;;;1.00;80.10;;;;;;5075588;28;20036;-78
2022/03/07 00:42:05;;;;;;;17.70;13.65;;;1.00;80.40;;;;;;5067492;28;20531;-78
2022/03/07 00:44:31;;;;;;;20.92;13.88;;;1.00;80.40;;;;;;5075645;28;20058;-78
2022/03/07 00:46:57;;;;;;;19.25;12.95;;;1.00;80.30;;;;;;5076476;28;20025;-78
2022/03/07 00:49:23;;;;;;;18.10;12.43;;;1.00;80.20;;;;;;5072092;28;20086;-78
2022/03/07 00:51:49;;;;;;;18.23;12.05;;;1.00;80.20;;;;;;5081857;28;20032;-79
2022/03/07 00:54:15;;;;;;;18.33;12.73;;;1.00;80.10;;;;;;5080131;28;20089;-78
2022/03/07 00:56:41;;;;;;;15.20;12.02;;;1.00;80.00;;;;;;5074804;28;20036;-78
2022/03/07 00:59:07;;;;;;;17.33;12.73;;;1.00;80.00;;;;;;5074814;28;20081;-78
2022/03/07 01:01:34;;;;;;;16.33;12.32;;;1.00;80.00;;;;;;5074751;28;20032;-79
2022/03/07 01:04:00;;;;;;;18.50;12.20;;;0.90;80.10;;;;;;5074704;28;20582;-78
2022/03/07 01:06:25;;;;;;;19.38;12.35;;;0.90;80.10;;;;;;5075031;28;20101;-77
2022/03/07 01:08:51;;;;;;;18.90;11.95;;;0.90;80.10;;;;;;5073353;28;20127;-78
2022/03/07 01:11:17;;;;;;;18.83;11.93;;;0.90;80.00;;;;;;5069432;28;20139;-76
2022/03/07 01:13:43;;;;;;;16.65;12.25;;;0.80;80.10;;;;;;5077232;28;20089;-79
2022/03/07 01:16:09;;;;;;;16.05;12.70;;;0.80;80.30;;;;;;5079901;28;20032;-79
2022/03/07 01:18:37;;;;;;;16.52;12.57;;;0.80;80.20;;;;;;5072409;28;20063;-79
2022/03/07 01:21:03;;;;;;;18.75;12.38;;;0.80;80.20;;;;;;5078201;28;20024;-78
2022/03/07 01:23:28;;;;;;;17.92;12.48;;;0.70;80.40;;;;;;5076497;28;20028;-78
2022/03/07 01:25:54;;;;;;;16.65;13.02;;;0.70;80.50;;;;;;5076640;28;20028;-78
2022/03/07 01:28:20;;;;;;;16.02;12.57;;;0.70;80.40;;;;;;5071293;28;20032;-79
2022/03/07 01:30:48;;;;;;;17.80;12.50;;;0.70;80.20;;;;;;5077224;28;20071;-78
2022/03/07 01:33:14;;;;;;;17.25;12.60;;;0.60;80.20;;;;;;5081762;28;20039;-78
2022/03/07 01:35:40;;;;;;;17.95;13.02;;;0.60;80.30;;;;;;5083114;28;20028;-78
2022/03/07 01:38:06;;;;;;;16.33;11.98;;;0.60;80.20;;;;;;5090827;28;20085;-78
2022/03/07 01:40:32;;;;;;;18.15;11.98;;;0.60;80.30;;;;;;5077420;28;20102;-77
2022/03/07 01:42:58;;;;;;;16.85;12.52;;;0.60;79.90;;;;;;5086414;28;20033;-78
2022/03/07 01:45:24;;;;;;;20.85;12.55;;;0.60;79.90;;;;;;5070699;28;20036;-78
2022/03/07 01:47:50;;;;;;;17.20;12.93;;;0.60;80.00;;;;;;5073923;28;20025;-78
2022/03/07 01:50:19;;;;;;;15.00;11.98;;;0.60;79.90;;;;;;5073402;28;20055;-78
2022/03/07 01:52:47;;;;;;;16.13;11.98;;;0.60;79.90;;;;;;5075010;28;20565;-78
2022/03/07 01:55:13;;;;;;;19.40;12.60;;;0.60;79.80;;;;;;5069307;28;20044;-78
2022/03/07 01:57:41;;;;;;;19.55;12.73;;;0.60;79.70;;;;;;5070800;28;20033;-78
2022/03/07 02:00:28;;;;;;;17.30;12.50;;;0.60;79.40;;;;;;5075193;28;20364;-78
2022/03/07 02:02:54;;;;;;;20.52;13.93;;;0.50;79.50;;;;;;5067446;28;20036;-78
2022/03/07 02:05:20;;;;;;;18.42;13.15;;;0.50;79.50;;;;;;5076404;28;20465;-79
2022/03/07 02:07:46;;;;;;;20.00;12.77;;;0.50;79.20;;;;;;5072763;28;20029;-78
2022/03/07 02:10:12;;;;;;;17.80;13.02;;;0.50;79.20;;;;;;5079973;28;20458;-79
2022/03/07 02:12:38;;;;;;;18.63;13.63;;;0.50;79.10;;;;;;5085681;28;20039;-78
2022/03/07 02:15:07;;;;;;;17.20;13.18;;;0.40;79.30;;;;;;5077377;28;20118;-78
2022/03/07 02:17:32;;;;;;;18.52;13.35;;;0.40;79.40;;;;;;5070747;28;20016;-77
2022/03/07 02:19:58;;;;;;;18.60;13.75;;;0.40;79.60;;;;;;5076633;28;20036;-78
2022/03/07 02:22:23;;;;;;;18.10;14.23;;;0.40;79.90;;;;;;5082978;28;20032;-78
2022/03/07 02:24:49;;;;;;;17.55;14.35;;;0.30;80.10;;;;;;5079166;28;20314;-78
2022/03/07 02:27:18;;;;;;;17.45;14.32;;;0.30;80.30;;;;;;5078781;28;20035;-78
2022/03/07 02:29:47;;;;;;;18.95;14.70;;;0.30;80.40;;;;;;5083285;28;20054;-78
2022/03/07 02:32:14;;;;;;;19.50;14.35;;;0.20;80.60;;;;;;5072099;28;20044;-78
2022/03/07 02:34:39;;;;;;;18.10;13.88;;;0.30;80.40;;;;;;5069878;28;20078;-77
2022/03/07 02:37:05;;;;;;;19.25;14.52;;;0.30;80.30;;;;;;5090184;28;20048;-76
2022/03/07 02:39:31;;;;;;;22.38;14.68;;;0.30;80.20;;;;;;5104875;28;20024;-76
2022/03/07 02:41:57;;;;;;;20.48;15.25;;;0.20;80.20;;;;;;5095653;28;20019;-77
2022/03/07 02:44:23;;;;;;;19.73;15.35;;;0.10;80.50;;;;;;5102084;28;20053;-77
2022/03/07 02:46:49;;;;;;;21.00;15.38;;;0.10;80.90;;;;;;5083583;28;20047;-78
2022/03/07 02:49:16;;;;;;;22.15;15.52;;;0.10;81.00;;;;;;5087116;28;20028;-78
2022/03/07 02:51:41;;;;;;;20.27;15.13;;;0.00;81.20;;;;;;5077534;28;20032;-78
2022/03/07 02:54:07;;;;;;;19.75;15.05;;;0.00;81.40;;;;;;5067343;28;20440;-78
2022/03/07 02:56:33;;;;;;;19.30;14.70;;;0.10;81.20;;;;;;5065058;28;20032;-78
2022/03/07 02:58:59;;;;;;;19.67;13.73;;;0.10;81.20;;;;;;5072470;28;20040;-78
2022/03/07 03:01:24;;;;;;;22.23;14.05;;;0.10;81.00;;;;;;5072567;28;20060;-78
2022/03/07 03:03:50;;;;;;;19.67;14.48;;;0.10;80.90;;;;;;5076029;28;20161;-77
2022/03/07 03:06:16;;;;;;;21.02;13.95;;;0.10;80.80;;;;;;5072400;28;20028;-77
2022/03/07 03:08:42;;;;;;;18.25;13.52;;;0.10;80.70;;;;;;5073861;28;20036;-79
2022/03/07 03:11:07;;;;;;;19.80;14.63;;;0.10;80.70;;;;;;5075137;28;20032;-77
2022/03/07 03:13:33;;;;;;;19.90;14.65;;;0.10;80.60;;;;;;5073486;28;20039;-77
2022/03/07 03:15:59;;;;;;;19.50;14.55;;;0.10;80.60;;;;;;5070646;28;20029;-77
2022/03/07 03:18:25;;;;;;;17.83;13.45;;;0.10;80.70;;;;;;5073680;28;20035;-77
2022/03/07 03:20:52;;;;;;;22.38;15.88;;;0.00;80.70;;;;;;5079543;28;20419;-77
2022/03/07 03:23:19;;;;;;;21.08;15.48;;;0.10;80.60;;;;;;5072896;28;20036;-77
2022/03/07 03:25:45;;;;;;;20.23;14.70;;;0.10;80.60;;;;;;5071216;28;20130;-77
2022/03/07 03:28:12;;;;;;;22.08;16.08;;;0.10;80.50;;;;;;5074663;28;20059;-78
2022/03/07 03:30:37;;;;;;;19.83;14.15;;;0.10;80.00;;;;;;5075403;28;20032;-77
2022/03/07 03:33:03;;;;;;;19.45;15.27;;;0.10;80.00;;;;;;5077224;28;20058;-78
2022/03/07 03:35:30;;;;;;;20.58;13.80;;;0.20;79.70;;;;;;5072739;28;20048;-78
2022/03/07 03:37:55;;;;;;;22.85;14.77;;;0.10;79.60;;;;;;5068215;28;20151;-78
2022/03/07 03:40:21;;;;;;;20.63;14.80;;;0.10;79.40;;;;;;5072150;28;20036;-78
2022/03/07 03:42:47;;;;;;;20.98;15.50;;;0.10;79.40;;;;;;5073715;28;20525;-77
2022/03/07 03:45:13;;;;;;;20.75;15.05;;;0.10;79.30;;;;;;5070696;28;20847;-79
2022/03/07 03:47:43;;;;;;;22.25;15.10;;;0.10;79.20;;;;;;5082205;28;20039;-78
2022/03/07 03:50:12;;;;;;;20.55;15.40;;;0.10;79.20;;;;;;5097283;28;20060;-78
2022/03/07 03:52:38;;;;;;;23.13;15.52;;;0.10;79.20;;;;;;5085825;28;20021;-77
2022/03/07 03:55:05;;;;;;;23.35;15.25;;;0.10;79.10;;;;;;5097224;28;20051;-77
2022/03/07 03:57:31;;;;;;;21.85;15.35;;;0.00;79.20;;;;;;5108951;27;20037;-77
2022/03/07 03:59:57;;;;;;;22.77;15.68;;;0.00;79.40;;;;;;5092290;28;20361;-79
2022/03/07 04:02:23;;;;;;;21.23;14.50;;;0.00;79.40;;;;;;5071276;28;20036;-80
2022/03/07 04:04:49;;;;;;;22.25;14.98;;;0.00;79.20;;;;;;5089075;28;20104;-78
2022/03/07 04:07:14;;;;;;;24.40;15.45;;;0.00;79.10;;;;;;5074214;28;20036;-78
2022/03/07 04:09:40;;;;;;;19.88;14.80;;;0.00;79.10;;;;;;5069640;28;20036;-78
2022/03/07 04:12:07;;;;;;;21.38;14.80;;;0.00;79.00;;;;;;5081599;28;20044;-78
2022/03/07 04:14:32;;;;;;;21.45;15.65;;;-3276.70;78.90;;;;;;5079041;28;20121;-78
2022/03/07 04:16:59;;;;;;;19.55;14.70;;;-3276.70;78.80;;;;;;5079716;28;20132;-78
2022/03/07 04:19:25;;;;;;;23.13;16.05;;;-3276.70;78.70;;;;;;5070837;28;20031;-77
2022/03/07 04:21:52;;;;;;;20.98;15.75;;;-3276.60;78.70;;;;;;5077823;28;20048;-77
2022/03/07 04:24:17;;;;;;;30.30;16.70;;;-3276.60;78.70;;;;;;5077321;28;20044;-78
2022/03/07 04:26:43;;;;;;;21.52;15.25;;;-3276.60;78.50;;;;;;5075232;28;20093;-78
2022/03/07 04:29:10;;;;;;;20.75;15.50;;;-3276.50;78.60;;;;;;5081412;28;20028;-78
2022/03/07 04:31:37;;;;;;;20.52;15.43;;;-3276.50;78.70;;;;;;5067848;28;20456;-78
2022/03/07 04:34:04;;;;;;;21.67;15.23;;;-3276.50;78.60;;;;;;5075745;28;20509;-78
2022/03/07 04:36:30;;;;;;;19.52;15.15;;;-3276.50;78.50;;;;;;5070790;28;20028;-78
2022/03/07 04:38:56;;;;;;;21.10;15.10;;;-3276.50;78.30;;;;;;5071549;28;20303;-78
2022/03/07 04:41:22;;;;;;;20.85;15.80;;;-3276.50;78.10;;;;;;5074349;28;20482;-79
2022/03/07 04:43:48;;;;;;;17.38;14.15;;;-3276.50;78.00;;;;;;5076759;28;20048;-78
2022/03/07 04:46:13;;;;;;;20.40;15.55;;;-3276.50;77.80;;;;;;5079409;28;20036;-77
2022/03/07 04:48:39;;;;;;;21.15;16.10;;;-3276.40;77.80;;;;;;5075532;28;20451;-77
2022/03/07 04:51:05;;;;;;;20.50;15.43;;;-3276.50;77.80;;;;;;5074580;28;20028;-77
2022/03/07 04:53:31;;;;;;;19.35;14.35;;;-3276.40;77.80;;;;;;5074670;28;20040;-78
2022/03/07 04:55:57;;;;;;;21.63;15.70;;;-3276.50;77.80;;;;;;5069971;28;20068;-78
2022/03/07 04:58:22;;;;;;;22.42;15.60;;;-3276.50;77.60;;;;;;5073928;28;20073;-78
2022/03/07 05:00:48;;;;;;;22.95;15.40;;;-3276.50;77.20;;;;;;5067470;28;20147;-79
2022/03/07 05:03:14;;;;;;;22.45;16.55;;;-3276.50;77.10;;;;;;5078664;27;20029;-78
2022/03/07 05:05:40;;;;;;;21.15;15.73;;;-3276.50;76.90;;;;;;5072965;28;20035;-78
2022/03/07 05:08:05;;;;;;;20.98;15.30;;;-3276.50;76.60;;;;;;5074541;28;20132;-78
2022/03/07 05:10:31;;;;;;;21.65;14.90;;;-3276.50;76.40;;;;;;5079122;28;20327;-79
2022/03/07 05:12:57;;;;;;;20.77;15.48;;;-3276.50;76.40;;;;;;5074404;28;20036;-78
2022/03/07 05:15:23;;;;;;;18.25;14.30;;;-3276.50;76.30;;;;;;5085129;28;20044;-77
2022/03/07 05:17:53;;;;;;;20.60;14.57;;;-3276.50;76.30;;;;;;5070844;28;20495;-79
2022/03/07 05:20:20;;;;;;;23.45;15.30;;;-3276.50;76.30;;;;;;5076624;28;20064;-77
2022/03/07 05:22:46;;;;;;;21.25;15.18;;;-3276.50;76.30;;;;;;5074111;28;20028;-79
2022/03/07 05:25:13;;;;;;;19.63;15.43;;;-3276.50;76.20;;;;;;5075760;28;20059;-78
2022/03/07 05:27:39;;;;;;;20.75;14.63;;;-3276.50;76.20;;;;;;5077253;28;20051;-77
2022/03/07 05:30:07;;;;;;;19.10;14.85;;;-3276.40;76.10;;;;;;5074272;28;20463;-78
2022/03/07 05:32:33;;;;;;;20.85;15.68;;;-3276.40;76.10;;;;;;5073538;28;20048;-78
2022/03/07 05:34:59;;;;;;;23.45;15.38;;;-3276.40;76.20;;;;;;5074035;28;20095;-78
2022/03/07 05:37:25;;;;;;;19.52;14.95;;;-3276.40;76.20;;;;;;5075229;28;20063;-78
2022/03/07 05:39:51;;;;;;;18.98;14.32;;;-3276.30;76.20;;;;;;5075235;28;20506;-78
2022/03/07 05:42:17;;;;;;;20.20;14.75;;;-3276.30;76.10;;;;;;5071386;28;20552;-78
2022/03/07 05:44:43;;;;;;;21.88;16.75;;;-3276.30;76.20;;;;;;5087668;28;20100;-79
2022/03/07 05:47:09;;;;;;;24.73;15.73;;;-3276.30;76.30;;;;;;5078362;28;20059;-78
2022/03/07 05:49:34;;;;;;;21.90;15.70;;;-3276.20;76.60;;;;;;5078984;28;20056;-79
2022/03/07 05:52:00;;;;;;;22.30;15.25;;;-3276.20;76.60;;;;;;5072684;28;20038;-78
2022/03/07 05:54:26;;;;;;;19.80;15.93;;;-3276.20;76.70;;;;;;5074426;28;20048;-78
2022/03/07 05:56:51;;;;;;;22.08;15.82;;;-3276.10;76.90;;;;;;5073139;28;20466;-78
2022/03/07 05:59:17;;;;;;;21.55;15.93;;;-3276.10;77.10;;;;;;5075386;28;20360;-77
2022/03/07 06:01:43;;;;;;;20.92;15.55;;;-3276.10;77.20;;;;;;5075185;28;20024;-78
2022/03/07 06:04:09;;;;;;;23.48;17.23;;;-3276.10;77.30;;;;;;5073808;28;20048;-79
2022/03/07 06:06:35;;;;;;;23.85;16.50;;;-3276.10;77.20;;;;;;5073588;28;20040;-78
2022/03/07 06:09:01;;;;;;;27.52;17.02;;;-3276.20;77.30;;;;;;5076181;28;20032;-80
2022/03/07 06:11:26;;;;;;;24.27;18.33;;;-3276.20;77.20;;;;;;5075013;28;20116;-79
2022/03/07 06:13:52;;;;;;;27.10;19.70;;;-3276.20;77.20;;;;;;5071520;28;20040;-77
2022/03/07 06:16:18;;;;;;;26.15;20.10;;;-3276.20;77.10;;;;;;5073901;28;20075;-79
2022/03/07 06:18:44;;;;;;;30.52;23.63;;;-3276.20;77.10;;;;;;5073972;28;20032;-78
2022/03/07 06:21:09;;;;;;;29.55;20.65;;;-3276.20;77.10;;;;;;5073565;28;20126;-79
2022/03/07 06:23:36;;;;;;;26.88;19.77;;;-3276.20;77.10;;;;;;5076650;28;20391;-78
2022/03/07 06:26:04;;;;;;;23.40;17.75;;;-3276.20;77.20;;;;;;5073376;28;20569;-79
2022/03/07 06:28:30;;;;;;;23.92;18.52;;;-3276.20;77.20;;;;;;5063815;28;20028;-78
2022/03/07 06:30:55;;;;;;;25.05;18.63;;;-3276.20;77.10;;;;;;5075918;28;20100;-78
2022/03/07 06:33:21;;;;;;;22.67;18.80;;;-3276.30;76.90;;;;;;5074683;28;20044;-79
2022/03/07 06:35:47;;;;;;;24.58;18.85;;;-3276.30;76.90;;;;;;5070485;28;20040;-77
2022/03/07 06:38:13;;;;;;;28.67;18.42;;;-3276.30;77.00;;;;;;5065325;28;20025;-78
2022/03/07 06:40:39;;;;;;;22.85;17.63;;;-3276.30;77.20;;;;;;5070956;28;20047;-72
2022/03/07 06:43:04;;;;;;;25.08;17.73;;;-3276.30;77.20;;;;;;5083738;28;20028;-71
2022/03/07 06:45:30;;;;;;;24.33;17.80;;;-3276.30;77.40;;;;;;5076678;27;20044;-71
2022/03/07 06:47:57;;;;;;;24.52;16.95;;;-3276.40;77.30;;;;;;5075829;28;20426;-72
2022/03/07 06:50:23;;;;;;;22.35;16.15;;;-3276.40;76.80;;;;;;5065297;28;20067;-73
2022/03/07 06:52:49;;;;;;;24.98;18.38;;;-3276.40;76.70;;;;;;5066233;28;20074;-71
2022/03/07 06:55:15;;;;;;;25.80;16.85;;;-3276.50;76.30;;;;;;5070797;28;20048;-72
2022/03/07 06:57:41;;;;;;;24.73;16.45;;;-3276.50;75.80;;;;;;5076052;28;20044;-72
2022/03/07 07:00:09;;;;;;;27.80;17.73;;;-3276.50;75.70;;;;;;5066350;28;20127;-72
2022/03/07 07:02:35;;;;;;;26.38;16.73;;;-3276.50;75.40;;;;;;5075054;28;20028;-73
2022/03/07 07:05:02;;;;;;;22.02;17.40;;;-3276.60;75.30;;;;;;5073215;28;20032;-74
2022/03/07 07:07:29;;;;;;;24.15;17.77;;;-3276.60;75.10;;;;;;5073230;28;20087;-72
2022/03/07 07:09:55;;;;;;;21.67;15.60;;;-3276.70;74.90;;;;;;5071719;28;20479;-74
2022/03/07 07:12:21;;;;;;;22.42;16.30;;;-3276.70;74.60;;;;;;5074953;28;20321;-72
2022/03/07 07:14:47;;;;;;;23.05;15.82;;;0.00;74.70;;;;;;5066030;28;20040;-71
2022/03/07 07:17:12;;;;;;;22.60;15.88;;;0.00;74.80;;;;;;5070793;28;20036;-71
2022/03/07 07:19:38;;;;;;;24.67;18.13;;;0.00;74.50;;;;;;5077580;28;20036;-72
2022/03/07 07:22:04;;;;;;;24.15;17.00;;;0.00;74.30;;;;;;5075992;28;20090;-71
2022/03/07 07:24:30;;;;;;;23.05;16.58;;;0.10;74.10;;;;;;5072346;28;20059;-74
2022/03/07 07:26:56;;;;;;;24.20;16.83;;;0.10;74.00;;;;;;5074884;28;20028;-74
2022/03/07 07:29:22;;;;;;;22.88;16.05;;;0.20;73.90;;;;;;5077537;28;20036;-72
2022/03/07 07:31:48;;;;;;;20.98;16.73;;;0.20;73.70;;;;;;5079601;28;20072;-74
2022/03/07 07:34:14;;;;;;;24.30;17.67;;;0.30;73.60;;;;;;5073956;28;20051;-73
2022/03/07 07:36:40;;;;;;;24.95;17.33;;;0.40;73.50;;;;;;5077638;28;20074;-72
2022/03/07 07:39:05;;;;;;;27.50;17.48;;;0.40;73.30;;;;;;5076785;28;20527;-73
2022/03/07 07:41:31;;;;;;;24.17;17.58;;;0.60;73.10;;;;;;5080855;28;20535;-73
2022/03/07 07:43:57;;;;;;;25.15;16.80;;;0.60;72.80;;;;;;5077731;28;20055;-73
2022/03/07 07:46:22;;;;;;;21.15;16.88;;;0.70;72.70;;;;;;5075823;28;20040;-75
2022/03/07 07:48:48;;;;;;;22.52;16.95;;;0.80;72.60;;;;;;5067897;28;20131;-74
2022/03/07 07:51:14;;;;;;;26.52;18.23;;;1.00;72.50;;;;;;5070032;28;20671;-74
2022/03/07 07:53:39;;;;;;;25.88;17.25;;;1.00;72.30;;;;;;5066728;28;20424;-75
2022/03/07 07:56:05;;;;;;;24.48;16.75;;;1.10;72.30;;;;;;5067226;28;20043;-74
2022/03/07 07:58:31;;;;;;;25.77;17.33;;;1.30;71.10;;;;;;5067490;28;20292;-76
2022/03/07 08:00:56;;;;;;;28.20;16.05;;;1.40;70.60;;;;;;5071712;28;20432;-74
2022/03/07 08:03:23;;;;;;;22.02;15.77;;;1.60;69.60;;;;;;5072396;28;20059;-72
2022/03/07 08:05:48;;;;;;;20.83;16.08;;;1.60;69.00;;;;;;5068967;28;20495;-73
2022/03/07 08:08:15;;;;;;;21.45;15.27;;;1.80;68.90;;;;;;5059693;28;20044;-73
2022/03/07 08:10:41;;;;;;;21.70;15.30;;;1.80;68.30;;;;;;5071821;28;20581;-72
2022/03/07 08:13:07;;;;;;;20.60;15.50;;;2.00;67.80;;;;;;5062672;28;20069;-72
2022/03/07 08:15:33;;;;;;;22.38;16.00;;;2.10;67.50;;;;;;5067134;28;20044;-75
2022/03/07 08:17:59;;;;;;;23.88;15.73;;;2.10;67.50;;;;;;5065919;28;20411;-74
2022/03/07 08:20:27;;;;;;;22.33;15.90;;;2.20;67.20;;;;;;5070574;28;20035;-73
2022/03/07 08:22:53;;;;;;;22.27;15.63;;;2.30;66.40;;;;;;5069263;28;20066;-74
2022/03/07 08:25:22;;;;;;;20.13;15.02;;;2.40;66.40;;;;;;5069193;28;20045;-72
2022/03/07 08:27:48;;;;;;;21.05;15.98;;;2.60;66.30;;;;;;5067676;28;20044;-73
2022/03/07 08:30:16;;;;;;;20.95;14.57;;;2.70;66.30;;;;;;5071568;28;20052;-73
2022/03/07 08:32:42;;;;;;;23.85;16.45;;;2.90;65.60;;;;;;5072514;28;20578;-72
2022/03/07 08:35:10;;;;;;;24.73;15.88;;;3.00;64.90;;;;;;5066624;28;20146;-73
2022/03/07 08:37:37;;;;;;;21.95;16.73;;;3.00;64.00;;;;;;5079859;28;20036;-73
2022/03/07 08:40:05;;;;;;;20.33;15.07;;;3.10;64.40;;;;;;5085873;28;20039;-73
2022/03/07 08:42:31;;;;;;;19.58;15.30;;;3.30;64.60;;;;;;5077480;28;20036;-75
2022/03/07 08:44:57;;;;;;;19.08;14.13;;;3.50;64.60;;;;;;5076777;27;20087;-72
2022/03/07 08:47:23;;;;;;;19.42;13.90;;;3.60;63.10;;;;;;5077449;28;20151;-72
2022/03/07 08:49:49;;;;;;;19.00;13.98;;;3.70;61.40;;;;;;5076242;28;20046;-71
2022/03/07 08:52:15;;;;;;;25.80;14.73;;;3.80;60.40;;;;;;5078902;28;20066;-72
2022/03/07 08:54:46;;;;;;;25.67;15.75;;;4.00;60.60;;;;;;5074976;28;20087;-71
2022/03/07 08:57:13;;;;;;;19.45;14.63;;;4.10;60.10;;;;;;5081754;28;20043;-71
2022/03/07 08:59:39;;;;;;;20.23;13.02;;;4.00;59.60;;;;;;5082809;28;20075;-70
2022/03/07 09:02:05;;;;;;;51.78;16.27;;;4.20;58.80;;;;;;5073711;28;20067;-73
2022/03/07 09:04:31;;;;;;;20.85;12.93;;;4.30;59.30;;;;;;5074822;28;20045;-71
2022/03/07 09:06:57;;;;;;;17.20;13.25;;;4.50;58.20;;;;;;5081897;28;20047;-72
2022/03/07 09:09:23;;;;;;;17.00;12.63;;;4.60;57.30;;;;;;5076889;28;20028;-71
2022/03/07 09:11:49;;;;;;;15.90;11.80;;;4.60;57.50;;;;;;5072942;28;20507;-72
2022/03/07 09:14:16;;;;;;;16.83;11.95;;;4.50;56.20;;;;;;5077556;28;20054;-73
2022/03/07 09:16:42;;;;;;;18.10;12.10;;;4.60;56.20;;;;;;5077579;27;20594;-72
2022/03/07 09:19:08;;;;;;;15.55;10.90;;;4.80;55.80;;;;;;5067375;28;20165;-71
2022/03/07 09:21:34;;;;;;;14.75;11.23;;;4.80;54.60;;;;;;5073862;28;20509;-70
2022/03/07 09:23:59;;;;;;;20.50;11.35;;;4.80;55.30;;;;;;5078419;28;20032;-71
2022/03/07 09:26:25;;;;;;;14.25;10.85;;;4.90;54.80;;;;;;5070403;28;20033;-71
2022/03/07 09:28:51;;;;;;;16.20;10.15;;;4.90;53.60;;;;;;5078042;28;20093;-73
2022/03/07 09:31:17;;;;;;;14.40;10.15;;;4.60;53.60;;;;;;5081510;27;20402;-71
2022/03/07 09:33:43;;;;;;;14.90;11.00;;;4.70;54.20;;;;;;5064164;28;20396;-71
2022/03/07 09:36:08;;;;;;;13.32;9.63;;;4.90;54.50;;;;;;5074858;28;20130;-71
2022/03/07 09:38:36;;;;;;;11.25;8.45;;;5.00;53.60;;;;;;5078168;28;20055;-71
2022/03/07 09:41:03;;;;;;;12.98;9.23;;;5.00;51.80;;;;;;5083734;28;20114;-72
2022/03/07 09:43:30;;;;;;;12.52;9.20;;;4.90;52.20;;;;;;5068692;28;20040;-72
2022/03/07 09:45:56;;;;;;;10.82;9.07;;;5.10;52.80;;;;;;5073487;28;20387;-71
2022/03/07 09:48:23;;;;;;;12.90;8.68;;;5.30;52.30;;;;;;5075094;28;20499;-71
2022/03/07 09:50:49;;;;;;;11.10;8.65;;;5.40;50.70;;;;;;5071563;28;20566;-70
2022/03/07 09:53:17;;;;;;;13.07;9.30;;;5.30;50.40;;;;;;5079663;28;20040;-74
2022/03/07 09:55:46;;;;;;;12.90;8.68;;;5.40;50.70;;;;;;5073965;28;20037;-72
2022/03/07 09:58:13;;;;;;;13.77;9.35;;;5.60;51.40;;;;;;5075308;28;20047;-73
2022/03/07 10:00:41;;;;;;;11.75;9.18;;;5.70;51.10;;;;;;5074130;28;20044;-73
2022/03/07 10:03:09;;;;;;;12.90;8.93;;;5.70;49.50;;;;;;5072971;28;20060;-73
2022/03/07 10:05:42;;;;;;;12.50;9.27;;;5.80;49.40;;;;;;5075979;28;20040;-72
2022/03/07 10:08:09;;;;;;;10.90;8.45;;;5.80;49.30;;;;;;5082077;28;20062;-72
2022/03/07 10:10:39;;;;;;;12.60;8.77;;;5.80;49.00;;;;;;5087622;28;20035;-74
2022/03/07 10:13:14;;;;;;;13.05;8.68;;;5.80;48.10;;;;;;5072642;28;20103;-74
2022/03/07 10:15:41;;;;;;;12.18;9.25;;;5.60;47.80;;;;;;5086524;28;20066;-73
2022/03/07 10:18:17;;;;;;;13.75;9.07;;;5.70;48.90;;;;;;5076022;27;20040;-72
2022/03/07 10:20:54;;;;;;;12.27;8.70;;;6.00;50.10;;;;;;5082245;28;20069;-72
2022/03/07 10:23:21;;;;;;;10.52;8.10;;;5.90;48.20;;;;;;5066708;28;20036;-72
2022/03/07 10:25:48;;;;;;;9.15;7.38;;;5.90;48.10;;;;;;5079191;28;20093;-72
2022/03/07 10:28:14;;;;;;;13.00;8.38;;;5.70;47.50;;;;;;5071036;28;20677;-72
2022/03/07 10:30:40;;;;;;;10.68;7.82;;;5.90;47.60;;;;;;5075301;28;20487;-74
2022/03/07 10:33:12;;;;;;;13.27;8.23;;;6.10;47.20;;;;;;5073151;28;20036;-72
2022/03/07 10:35:47;;;;;;;11.95;7.68;;;6.20;46.30;;;;;;5072680;28;20040;-71
2022/03/07 10:38:20;;;;;;;10.85;8.00;;;6.10;46.40;;;;;;5074882;28;20096;-72
2022/03/07 10:40:52;;;;;;;12.02;7.55;;;6.10;46.00;;;;;;5073129;28;20070;-71
2022/03/07 10:43:19;;;;;;;9.95;8.15;;;6.20;46.10;;;;;;5076020;28;20155;-70
2022/03/07 10:45:56;;;;;;;11.60;7.75;;;6.30;45.80;;;;;;5073809;28;20530;-70
2022/03/07 10:48:25;;;;;;;14.05;8.00;;;6.30;46.00;;;;;;5071742;28;20032;-71
2022/03/07 10:50:59;;;;;;;12.52;7.70;;;6.40;46.20;;;;;;5076486;28;20039;-70
2022/03/07 10:53:25;;;;;;;10.20;7.70;;;6.40;45.70;;;;;;5062291;28;20609;-70
2022/03/07 10:55:57;;;;;;;11.02;8.00;;;6.20;45.80;;;;;;5067593;28;20036;-72
2022/03/07 10:58:24;;;;;;;12.88;6.90;;;6.30;45.40;;;;;;5066769;28;20029;-71
2022/03/07 11:00:57;;;;;;;13.02;7.63;;;6.30;45.30;;;;;;5073707;28;20574;-72
2022/03/07 11:03:34;;;;;;;11.43;7.75;;;6.10;46.20;;;;;;5068063;28;20036;-73
2022/03/07 11:06:01;;;;;;;11.98;7.70;;;6.20;46.40;;;;;;5079188;28;20131;-71
2022/03/07 11:08:28;;;;;;;11.45;7.82;;;6.30;45.90;;;;;;5076956;28;20035;-71
2022/03/07 11:10:59;;;;;;;11.02;8.43;;;6.40;45.80;;;;;;5077742;28;20515;-72
2022/03/07 11:13:29;;;;;;;10.95;7.82;;;6.50;45.20;;;;;;5074419;28;20048;-74
2022/03/07 11:16:01;;;;;;;11.45;7.82;;;6.30;45.00;;;;;;5077325;28;20173;-71
2022/03/07 11:18:27;;;;;;;10.52;8.57;;;6.00;45.70;;;;;;5073744;28;20485;-72
2022/03/07 11:20:55;;;;;;;10.43;7.95;;;6.30;46.50;;;;;;5072574;28;20614;-71
2022/03/07 11:23:24;;;;;;;10.60;7.70;;;6.60;45.90;;;;;;5066733;28;20047;-71
2022/03/07 11:25:52;;;;;;;11.15;7.70;;;6.70;44.70;;;;;;5072433;28;20059;-72
2022/03/07 11:28:20;;;;;;;11.90;7.63;;;6.70;45.10;;;;;;5069498;28;20107;-70
2022/03/07 11:30:47;;;;;;;10.63;8.13;;;6.60;44.80;;;;;;5067330;28;20044;-72
2022/03/07 11:33:18;;;;;;;9.95;7.85;;;6.60;45.30;;;;;;5062602;28;20047;-74
2022/03/07 11:35:45;;;;;;;12.23;8.00;;;6.80;45.00;;;;;;5066490;28;20048;-70
2022/03/07 11:38:14;;;;;;;10.63;7.97;;;6.90;44.50;;;;;;5065944;28;20048;-71
2022/03/07 11:41:00;;;;;;;12.90;8.57;;;6.90;44.90;;;;;;5067482;28;20046;-71
2022/03/07 11:43:28;;;;;;;10.77;7.47;;;7.10;44.70;;;;;;5063185;28;20071;-72
2022/03/07 11:45:56;;;;;;;10.55;7.18;;;7.00;43.80;;;;;;5067263;28;20550;-70
2022/03/07 11:48:22;;;;;;;12.93;7.88;;;6.90;44.40;;;;;;5066266;28;20040;-71
2022/03/07 11:50:49;;;;;;;11.93;7.35;;;7.00;44.70;;;;;;5069531;28;20929;-71
2022/03/07 11:53:16;;;;;;;9.95;7.57;;;7.10;44.10;;;;;;5065199;28;20138;-71
2022/03/07 11:55:50;;;;;;;10.18;7.68;;;7.10;45.00;;;;;;5066606;28;20091;-71
2022/03/07 11:58:31;;;;;;;11.43;7.63;;;7.10;44.70;;;;;;5064601;28;20090;-72
2022/03/07 12:01:05;;;;;;;10.38;7.45;;;7.30;44.20;;;;;;5065873;28;20189;-69
2022/03/07 12:03:34;;;;;;;11.50;8.13;;;7.40;43.90;;;;;;5066267;28;20398;-69
2022/03/07 12:06:02;;;;;;;13.07;8.48;;;6.90;44.00;;;;;;5066410;28;20121;-70
2022/03/07 12:08:29;;;;;;;11.82;8.45;;;7.00;44.00;;;;;;5065207;28;20036;-69
2022/03/07 12:11:02;;;;;;;11.57;8.23;;;7.10;44.90;;;;;;5063765;28;20480;-70
2022/03/07 12:13:30;;;;;;;12.17;7.53;;;7.10;45.00;;;;;;5065618;28;20048;-70
2022/03/07 12:15:57;;;;;;;9.93;7.40;;;7.10;43.80;;;;;;5067407;28;20581;-69
2022/03/07 12:18:23;;;;;;;12.23;9.10;;;7.10;44.00;;;;;;5066644;28;20032;-72
2022/03/07 12:21:00;;;;;;;10.95;8.02;;;7.10;44.80;;;;;;5069281;28;20049;-74
2022/03/07 12:23:29;;;;;;;11.30;8.10;;;6.80;45.20;;;;;;5078989;28;20394;-72
2022/03/07 12:26:09;;;;;;;11.50;8.70;;;6.70;44.80;;;;;;5072908;28;20072;-71
2022/03/07 12:28:40;;;;;;;12.90;8.18;;;7.00;45.30;;;;;;5073777;28;20522;-74